Time;durP1;ratioP1;P1;durP2;ratioP2;P2;SDS_P1;SDS_P2;PMS_P1;PMS_P2;Temp;Humidity;BMP_temperature;BMP_pressure;BME280_temperature;BME280_humidity;BME280_pressure;Samples;Min_cycle;Max_cycle;Signal;HPM_P1;HPM_P2
2022/08/26 00:02:16;;;;;;;12.60;11.32;;;19.20;99.90;;;20.08;82.02;97636.34;5222861;28;20197;-65
2022/08/26 00:04:55;;;;;;;12.95;11.80;;;19.20;99.90;;;20.07;82.01;97632.00;5221392;28;20247;-65
2022/08/26 00:07:30;;;;;;;12.18;11.18;;;19.20;99.90;;;20.09;81.92;97627.72;5221462;28;20204;-65
2022/08/26 00:10:05;;;;;;;11.88;10.60;;;19.20;99.90;;;20.12;81.85;97629.50;5220752;28;20205;-65
2022/08/26 00:12:41;;;;;;;12.02;10.40;;;19.20;99.90;;;20.06;81.54;97635.47;5218065;28;20201;-65
2022/08/26 00:15:24;;;;;;;12.88;11.70;;;19.10;99.90;;;20.01;81.62;97637.09;5221814;28;20683;-65
2022/08/26 00:18:00;;;;;;;11.88;10.95;;;19.00;99.90;;;19.97;81.58;97630.09;5221722;28;20813;-65
2022/08/26 00:20:38;;;;;;;12.43;11.43;;;18.90;99.90;;;19.86;82.23;97632.53;5222160;28;20221;-65
2022/08/26 00:23:16;;;;;;;12.98;11.88;;;18.90;99.90;;;19.84;82.42;97628.16;5222272;28;20247;-65
2022/08/26 00:25:51;;;;;;;12.35;11.25;;;18.90;99.90;;;19.84;82.87;97628.16;5223335;28;20211;-65
2022/08/26 00:28:26;;;;;;;12.45;11.25;;;18.90;99.90;;;19.82;82.72;97632.44;5222827;28;20657;-65
2022/08/26 00:31:01;;;;;;;12.13;10.95;;;18.90;99.90;;;19.83;82.91;97631.59;5220555;28;20208;-65
2022/08/26 00:33:38;;;;;;;13.10;11.90;;;18.90;99.90;;;19.88;82.88;97633.41;5223539;28;20227;-65
2022/08/26 00:36:14;;;;;;;12.70;11.40;;;19.00;99.90;;;19.84;82.97;97635.94;5221055;28;20288;-65
2022/08/26 00:38:53;;;;;;;11.82;10.82;;;19.00;99.90;;;19.83;82.85;97629.88;5221558;28;20229;-65
2022/08/26 00:41:28;;;;;;;12.15;10.93;;;18.90;99.90;;;19.83;82.41;97621.22;5221638;28;20277;-65
2022/08/26 00:44:03;;;;;;;11.43;10.52;;;18.80;99.90;;;19.74;82.85;97621.94;5221041;28;20246;-65
2022/08/26 00:46:43;;;;;;;11.48;10.48;;;18.80;99.90;;;19.71;82.90;97627.94;5220394;28;20618;-65
2022/08/26 00:49:25;;;;;;;11.80;10.73;;;18.80;99.90;;;19.70;82.97;97626.19;5221170;28;20209;-65
2022/08/26 00:52:07;;;;;;;12.40;11.30;;;18.80;99.90;;;19.67;83.25;97620.97;5220520;28;20213;-65
2022/08/26 00:54:47;;;;;;;11.60;10.45;;;18.80;99.90;;;19.69;83.10;97621.88;5220707;28;20239;-65
2022/08/26 00:57:24;;;;;;;11.57;10.63;;;18.80;99.90;;;19.67;83.13;97631.34;5221879;28;20197;-65
2022/08/26 01:00:01;;;;;;;12.65;11.43;;;18.80;99.90;;;19.63;83.60;97618.25;5218970;28;20387;-65
2022/08/26 01:02:36;;;;;;;12.73;11.55;;;18.70;99.90;;;19.61;83.31;97625.16;5221577;28;20228;-65
2022/08/26 01:05:20;;;;;;;12.55;11.38;;;18.70;99.90;;;19.58;83.59;97616.47;5222788;28;20255;-65
2022/08/26 01:07:57;;;;;;;13.27;12.07;;;18.60;99.90;;;19.57;83.73;97625.09;5220602;28;20209;-65
2022/08/26 01:10:32;;;;;;;13.20;11.98;;;18.70;99.90;;;19.57;83.77;97624.19;5216184;28;20201;-65
2022/08/26 01:13:10;;;;;;;13.68;12.32;;;18.70;99.90;;;19.56;83.96;97622.47;5222631;28;20625;-64
2022/08/26 01:15:49;;;;;;;13.80;12.55;;;18.70;99.90;;;19.56;84.50;97619.88;5221130;28;20271;-64
2022/08/26 01:18:25;;;;;;;14.48;13.15;;;18.70;99.90;;;19.54;84.30;97618.97;5220418;28;20204;-65
2022/08/26 01:21:08;;;;;;;12.48;11.43;;;18.60;99.90;;;19.47;84.44;97624.88;5221040;28;20232;-65
2022/08/26 01:23:49;;;;;;;12.95;11.75;;;18.50;99.90;;;19.41;84.68;97627.38;5220268;28;20233;-64
2022/08/26 01:26:33;;;;;;;13.10;11.80;;;18.50;99.90;;;19.39;84.53;97623.88;5218779;28;20207;-65
2022/08/26 01:29:12;;;;;;;13.38;12.07;;;18.50;99.90;;;19.38;84.89;97619.53;5219770;28;20227;-65
2022/08/26 01:31:51;;;;;;;12.38;11.15;;;18.50;99.90;;;19.38;84.25;97622.13;5220295;28;20208;-64
2022/08/26 01:34:30;;;;;;;13.13;12.02;;;18.50;99.90;;;19.32;84.76;97623.78;5220105;28;20225;-64
2022/08/26 01:37:10;;;;;;;12.55;11.45;;;18.40;99.90;;;19.31;85.25;97622.00;5219927;28;20209;-65
2022/08/26 01:39:54;;;;;;;13.85;12.40;;;18.40;99.90;;;19.29;85.03;97628.91;5219236;28;20523;-64
2022/08/26 01:42:30;;;;;;;13.68;12.48;;;18.40;99.90;;;19.21;85.13;97630.47;5221363;28;20205;-64
2022/08/26 01:45:11;;;;;;;12.73;11.68;;;18.30;99.90;;;19.21;85.06;97629.59;5220742;28;20263;-65
2022/08/26 01:47:46;;;;;;;12.15;11.02;;;18.30;99.90;;;19.20;84.63;97622.66;5221309;28;20283;-65
2022/08/26 01:50:24;;;;;;;13.02;11.73;;;18.20;99.90;;;19.13;84.85;97627.72;5219911;28;20197;-65
2022/08/26 01:53:06;;;;;;;14.02;12.27;;;18.20;99.90;;;19.10;85.05;97626.78;5219468;28;20266;-65
2022/08/26 01:55:46;;;;;;;14.07;12.65;;;18.20;99.90;;;19.12;85.33;97619.94;5220563;28;20204;-65
2022/08/26 01:58:25;;;;;;;14.05;12.77;;;18.20;99.90;;;19.07;86.15;97618.94;5220811;28;20288;-65
2022/08/26 02:00:59;;;;;;;13.77;12.48;;;18.20;99.90;;;19.10;85.83;97619.88;5220866;28;20271;-65
2022/08/26 02:03:36;;;;;;;15.75;14.25;;;18.20;99.90;;;19.09;86.09;97620.72;5220579;28;20335;-64
2022/08/26 02:06:14;;;;;;;15.45;14.05;;;18.20;99.90;;;19.03;86.70;97619.72;5221123;28;20205;-64
2022/08/26 02:08:50;;;;;;;14.43;13.13;;;18.20;99.90;;;19.07;86.92;97617.22;5220642;28;20719;-65
2022/08/26 02:11:25;;;;;;;14.50;12.73;;;18.30;99.90;;;19.09;86.85;97619.88;5223051;28;20293;-65
2022/08/26 02:14:11;;;;;;;14.50;13.05;;;18.30;99.90;;;19.08;86.91;97618.09;5224707;28;20680;-64
2022/08/26 02:16:49;;;;;;;13.50;12.30;;;18.30;99.90;;;19.12;86.93;97617.34;5225011;28;20641;-65
2022/08/26 02:19:30;;;;;;;14.65;13.35;;;18.30;99.90;;;19.15;87.21;97619.97;5226551;28;20653;-64
2022/08/26 02:22:12;;;;;;;15.57;13.68;;;18.30;99.90;;;19.16;86.90;97621.72;5225790;28;20270;-65
2022/08/26 02:24:49;;;;;;;13.95;12.75;;;18.30;99.90;;;19.16;86.53;97620.84;5224037;28;20316;-65
2022/08/26 02:27:27;;;;;;;13.80;12.48;;;18.30;99.90;;;19.15;86.17;97625.16;5224849;28;20736;-65
2022/08/26 02:30:10;;;;;;;14.75;13.32;;;18.20;99.90;;;19.08;86.01;97628.47;5226575;28;20295;-65
2022/08/26 02:32:44;;;;;;;14.88;13.38;;;18.20;99.90;;;19.01;86.98;97622.28;5224304;28;20239;-65
2022/08/26 02:35:19;;;;;;;15.38;13.98;;;18.10;99.90;;;18.93;87.57;97628.16;5224773;28;20676;-64
2022/08/26 02:37:53;;;;;;;14.52;13.20;;;18.00;99.90;;;18.92;87.25;97623.84;5224476;28;20379;-65
2022/08/26 02:40:30;;;;;;;13.55;12.30;;;18.00;99.90;;;18.96;87.48;97623.03;5225487;28;20217;-64
2022/08/26 02:43:04;;;;;;;13.07;11.90;;;18.10;99.90;;;18.95;87.09;97617.00;5225626;28;20248;-64
2022/08/26 02:45:41;;;;;;;15.40;13.82;;;18.10;99.90;;;18.92;87.37;97616.94;5225332;28;20284;-65
2022/08/26 02:48:17;;;;;;;14.40;13.02;;;18.10;99.90;;;18.90;87.49;97616.03;5223082;28;20193;-64
2022/08/26 02:50:50;;;;;;;14.10;12.88;;;18.00;99.90;;;18.87;87.65;97613.38;5222525;28;20292;-65
2022/08/26 02:53:24;;;;;;;14.25;12.95;;;18.00;99.90;;;18.83;87.49;97620.22;5223888;28;20233;-65
2022/08/26 02:55:57;;;;;;;14.30;13.00;;;18.00;99.90;;;18.78;87.86;97614.06;5223752;28;20228;-64
2022/08/26 02:58:33;;;;;;;14.32;13.10;;;17.90;99.90;;;18.80;87.62;97617.56;5224612;28;20212;-65
2022/08/26 03:01:06;;;;;;;14.10;12.77;;;17.90;99.90;;;18.77;87.35;97617.50;5223064;28;20317;-65
2022/08/26 03:03:39;;;;;;;14.88;13.48;;;17.90;99.90;;;18.78;87.31;97618.38;5224719;28;20221;-64
2022/08/26 03:06:13;;;;;;;14.55;13.35;;;17.90;99.90;;;18.73;88.00;97618.22;5225017;28;20608;-65
2022/08/26 03:08:47;;;;;;;15.00;13.60;;;17.80;99.90;;;18.72;88.09;97613.03;5224230;28;20296;-65
2022/08/26 03:11:21;;;;;;;15.00;13.50;;;17.80;99.90;;;18.67;88.00;97618.09;5223794;28;20243;-65
2022/08/26 03:13:55;;;;;;;14.75;13.27;;;17.80;99.90;;;18.67;87.86;97616.38;5221728;28;20308;-64
2022/08/26 03:16:32;;;;;;;15.18;13.15;;;17.80;99.90;;;18.65;88.07;97614.59;5218132;28;20205;-65
2022/08/26 03:19:08;;;;;;;14.43;12.93;;;17.80;99.90;;;18.64;88.37;97615.44;5222830;28;20221;-65
2022/08/26 03:21:41;;;;;;;14.75;13.35;;;17.70;99.90;;;18.61;87.92;97611.09;5225095;28;20245;-65
2022/08/26 03:24:16;;;;;;;14.73;13.32;;;17.70;99.90;;;18.60;87.91;97613.63;5223460;28;20256;-64
2022/08/26 03:26:49;;;;;;;15.38;13.98;;;17.70;99.90;;;18.53;88.81;97609.16;5223332;28;20254;-65
2022/08/26 03:32:21;;;;;;;14.38;12.98;;;17.60;99.90;;;18.45;89.12;97607.28;5222026;28;20201;-65
2022/08/26 03:34:58;;;;;;;13.88;12.55;;;17.60;99.90;;;18.52;88.43;97610.03;5223718;28;20591;-65
2022/08/26 03:37:32;;;;;;;14.48;13.15;;;17.60;99.90;;;18.48;88.70;97608.19;5225606;28;20205;-65
2022/08/26 03:40:09;;;;;;;14.75;13.25;;;17.60;99.90;;;18.48;88.67;97603.00;5221312;28;20631;-66
2022/08/26 03:42:43;;;;;;;15.93;14.38;;;17.60;99.90;;;18.42;89.38;97599.44;5223432;28;20208;-64
2022/08/26 03:45:20;;;;;;;15.43;14.00;;;17.60;99.90;;;18.32;89.75;97602.69;5222984;28;20236;-65
2022/08/26 03:47:53;;;;;;;15.57;14.07;;;17.40;99.90;;;18.32;89.68;97600.09;5223210;28;20228;-65
2022/08/26 03:50:30;;;;;;;14.98;13.27;;;17.40;99.90;;;18.33;89.88;97604.41;5219959;28;20632;-64
2022/08/26 03:53:06;;;;;;;14.82;13.50;;;17.40;99.90;;;18.33;89.83;97601.84;5222575;28;20225;-65
2022/08/26 03:55:45;;;;;;;14.90;13.48;;;17.40;99.90;;;18.38;89.44;97608.00;5221103;28;20666;-65
2022/08/26 03:58:19;;;;;;;13.63;12.32;;;17.50;99.90;;;18.42;88.82;97608.94;5222995;28;20205;-65
2022/08/26 04:00:53;;;;;;;14.48;12.98;;;17.50;99.90;;;18.44;88.89;97608.13;5221984;28;20315;-65
2022/08/26 04:06:18;;;;;;;14.70;13.20;;;17.50;99.90;;;18.45;89.11;97607.28;5224072;28;20295;-64
2022/08/26 04:08:51;;;;;;;15.27;13.68;;;17.50;99.90;;;18.33;88.82;97604.41;5221918;28;20221;-65
2022/08/26 04:11:30;;;;;;;14.65;12.98;;;17.50;99.90;;;18.34;89.31;97608.78;5227093;28;20257;-64
2022/08/26 04:14:12;;;;;;;15.38;13.98;;;17.50;99.90;;;18.39;88.86;97603.69;5222793;28;20327;-65
2022/08/26 04:16:47;;;;;;;14.68;13.27;;;17.50;99.90;;;18.39;89.43;97601.97;5223466;28;20247;-64
2022/08/26 04:19:21;;;;;;;15.20;13.60;;;17.50;99.90;;;18.40;89.64;97611.50;5221609;28;20240;-65
2022/08/26 04:21:54;;;;;;;15.75;14.25;;;17.50;99.90;;;18.39;89.82;97609.72;5220401;28;20307;-64
2022/08/26 04:24:28;;;;;;;15.52;14.10;;;17.50;99.90;;;18.39;89.85;97614.91;5223878;28;20217;-64
2022/08/26 04:27:02;;;;;;;15.65;14.15;;;17.50;99.90;;;18.38;90.10;97610.59;5220883;28;20297;-64
2022/08/26 04:29:39;;;;;;;15.27;13.88;;;17.50;99.90;;;18.38;90.10;97604.53;5221644;28;20224;-64
2022/08/26 04:32:14;;;;;;;15.02;13.73;;;17.50;99.90;;;18.38;89.56;97602.81;5221469;28;20672;-65
2022/08/26 04:34:48;;;;;;;15.07;13.65;;;17.50;99.90;;;18.35;89.42;97600.16;5221526;28;20220;-65
2022/08/26 04:37:21;;;;;;;15.45;13.95;;;17.40;99.90;;;18.34;89.09;97595.84;5217816;28;20575;-64
2022/08/26 04:39:54;;;;;;;14.57;13.30;;;17.40;99.90;;;18.32;89.67;97612.16;5219796;28;20194;-64
2022/08/26 04:42:28;;;;;;;15.82;14.27;;;17.40;99.90;;;18.34;89.78;97606.19;5220475;28;20684;-63
2022/08/26 04:45:01;;;;;;;16.30;14.25;;;17.50;99.90;;;18.36;89.20;97608.78;5219259;28;20283;-65
2022/08/26 04:47:43;;;;;;;15.02;13.43;;;17.50;99.90;;;18.40;89.49;97606.31;5224256;28;20249;-64
2022/08/26 04:50:18;;;;;;;16.00;14.40;;;17.50;99.90;;;18.39;89.57;97608.88;5223053;28;20274;-63
2022/08/26 04:52:55;;;;;;;15.15;13.68;;;17.50;99.90;;;18.43;89.05;97611.56;5223736;28;20216;-64
2022/08/26 04:55:29;;;;;;;14.90;13.48;;;17.50;99.90;;;18.52;89.04;97612.59;5223092;28;20213;-65
2022/08/26 04:58:15;;;;;;;15.23;13.88;;;17.60;99.90;;;18.55;89.07;97615.25;5219364;28;20275;-64
2022/08/26 05:00:51;;;;;;;16.20;14.55;;;17.60;99.90;;;18.56;89.24;97617.88;5221967;28;20204;-63
2022/08/26 05:03:27;;;;;;;17.95;15.27;;;17.70;99.90;;;18.55;89.63;97617.84;5219636;28;20298;-64
2022/08/26 05:06:06;;;;;;;16.27;14.68;;;17.70;99.90;;;18.59;89.28;97624.81;5222213;28;20296;-63
2022/08/26 05:08:41;;;;;;;16.08;14.63;;;17.70;99.90;;;18.53;89.76;97619.53;5222633;28;20217;-63
2022/08/26 05:11:15;;;;;;;15.57;13.77;;;17.70;99.90;;;18.58;89.31;97621.38;5220587;28;20201;-63
2022/08/26 05:13:51;;;;;;;16.33;14.70;;;17.70;99.90;;;18.64;88.77;97620.63;5221740;28;20221;-64
2022/08/26 05:16:34;;;;;;;16.80;15.02;;;17.80;99.90;;;18.61;89.28;97613.66;5224917;28;20209;-63
2022/08/26 05:19:13;;;;;;;15.57;14.18;;;17.70;99.90;;;18.67;89.57;97618.97;5221626;28;20584;-63
2022/08/26 05:21:51;;;;;;;17.67;15.38;;;17.80;99.90;;;18.82;89.29;97615.84;5224272;28;20244;-64
2022/08/26 05:24:26;;;;;;;17.75;15.75;;;17.90;99.90;;;19.00;88.92;97620.56;5220100;28;20217;-63
2022/08/26 05:26:59;;;;;;;17.40;15.65;;;18.10;99.90;;;19.23;88.14;97618.41;5219624;28;20201;-64
2022/08/26 05:29:33;;;;;;;16.33;14.63;;;18.30;99.90;;;19.45;86.75;97618.78;5225193;28;20558;-63
2022/08/26 05:32:07;;;;;;;14.80;13.20;;;18.50;99.90;;;19.61;85.79;97620.81;5221444;28;20201;-64
2022/08/26 05:34:45;;;;;;;15.68;13.73;;;18.60;99.90;;;19.95;84.32;97618.84;5221741;28;20224;-63
2022/08/26 05:37:18;;;;;;;16.45;14.75;;;18.70;99.90;;;20.36;82.49;97618.59;5222412;28;20200;-63
2022/08/26 05:39:52;;;;;;;15.63;14.07;;;19.10;99.90;;;20.74;79.84;97620.88;5220711;28;20220;-64
2022/08/26 05:42:25;;;;;;;15.07;13.57;;;19.50;99.90;;;21.03;78.23;97616.94;5219506;28;20220;-64
2022/08/26 05:44:58;;;;;;;14.18;12.77;;;19.70;99.90;;;21.44;76.66;97623.47;5216679;28;20221;-65
2022/08/26 05:47:32;;;;;;;15.02;13.45;;;20.00;99.90;;;21.77;75.27;97628.09;5221866;28;20201;-65
2022/08/26 05:50:08;;;;;;;14.63;13.30;;;20.30;99.90;;;22.16;73.78;97629.31;5219632;28;20255;-65
2022/08/26 05:52:41;;;;;;;15.70;13.43;;;20.90;99.90;;;22.54;71.54;97628.72;5220835;28;20451;-65
2022/08/26 05:55:15;;;;;;;15.50;13.13;;;21.40;99.90;;;22.80;70.57;97626.25;5219901;28;20205;-66
2022/08/26 05:57:50;;;;;;;15.43;13.23;;;21.80;99.90;;;22.96;69.49;97630.72;5220767;28;20201;-64
2022/08/26 06:00:24;;;;;;;14.27;12.95;;;21.80;99.90;;;23.14;69.07;97632.50;5219822;28;20193;-65
2022/08/26 06:02:57;;;;;;;14.93;13.10;;;21.90;99.90;;;23.50;67.67;97631.75;5219657;28;20229;-65
2022/08/26 06:05:32;;;;;;;13.85;12.55;;;22.20;99.90;;;23.71;67.26;97630.06;5219237;28;20254;-65
2022/08/26 06:08:12;;;;;;;14.50;13.20;;;22.30;99.90;;;23.97;66.07;97635.31;5219263;28;20211;-66
2022/08/26 06:10:48;;;;;;;13.63;12.20;;;22.50;99.90;;;24.27;64.92;97634.44;5219875;28;20223;-66
2022/08/26 06:13:26;;;;;;;14.50;13.02;;;22.70;99.90;;;24.34;64.33;97636.16;5222563;28;20213;-66
2022/08/26 06:16:07;;;;;;;12.85;11.63;;;22.90;99.90;;;24.65;63.35;97636.16;5221217;28;21953;-65
2022/08/26 06:18:44;;;;;;;14.10;12.73;;;22.90;99.90;;;24.91;62.57;97633.47;5225153;28;20196;-65
2022/08/26 06:21:23;;;;;;;14.07;12.68;;;23.00;99.90;;;25.47;60.38;97640.22;5221435;28;20240;-65
2022/08/26 06:26:54;;;;;;;14.30;12.52;;;23.70;99.90;;;25.80;59.65;97638.25;5219667;28;20193;-65
2022/08/26 06:29:30;;;;;;;13.63;12.25;;;23.80;99.90;;;25.84;59.17;97645.25;5218360;28;20235;-65
2022/08/26 06:32:05;;;;;;;14.15;12.75;;;23.80;99.90;;;25.74;59.94;97644.41;5219507;28;20200;-66
2022/08/26 06:34:38;;;;;;;14.23;12.73;;;23.70;99.90;;;25.37;60.66;97656.84;5218663;28;20212;-66
2022/08/26 06:37:13;;;;;;;15.18;13.70;;;23.40;99.90;;;25.44;61.28;97650.72;5216562;28;20639;-65
2022/08/26 06:39:47;;;;;;;15.95;13.18;;;23.60;99.90;;;25.30;61.60;97647.28;5217930;28;20205;-66
2022/08/26 06:42:23;;;;;;;15.10;13.60;;;23.60;99.90;;;25.61;60.87;97648.84;5215501;28;20213;-66
2022/08/26 06:44:56;;;;;;;14.40;13.00;;;24.00;99.90;;;25.44;61.16;97640.25;5222906;28;20312;-65
2022/08/26 06:47:30;;;;;;;16.17;13.80;;;23.90;99.90;;;25.74;60.90;97649.63;5219428;28;20206;-65
2022/08/26 06:50:07;;;;;;;14.55;13.13;;;24.10;99.90;;;26.03;59.95;97633.72;5220257;28;21464;-65
2022/08/26 06:52:42;;;;;;;14.18;12.80;;;24.30;99.90;;;26.06;59.42;97649.44;5220247;28;20620;-65
2022/08/26 06:55:15;;;;;;;15.30;14.00;;;24.40;99.90;;;26.17;59.29;97645.84;5222633;28;20725;-65
2022/08/26 06:57:50;;;;;;;15.95;14.45;;;24.50;99.90;;;26.18;59.47;97643.25;5221155;28;20652;-65
2022/08/26 07:00:23;;;;;;;15.27;13.77;;;24.50;99.90;;;26.20;59.86;97653.69;5223892;28;20921;-65
2022/08/26 07:02:58;;;;;;;15.98;13.40;;;24.50;99.90;;;26.39;59.12;97644.78;5225654;28;20272;-65
2022/08/26 07:05:31;;;;;;;15.80;13.88;;;24.60;99.90;;;26.58;58.11;97649.88;5224199;28;20629;-65
2022/08/26 07:08:06;;;;;;;14.82;13.30;;;24.90;99.90;;;26.90;57.28;97642.53;5221060;28;20288;-65
2022/08/26 07:10:41;;;;;;;17.30;13.73;;;25.10;99.90;;;26.96;56.92;97638.97;5221208;28;20219;-64
2022/08/26 07:13:14;;;;;;;14.88;13.38;;;25.30;99.90;;;27.21;56.40;97642.19;5225978;28;20259;-66
2022/08/26 07:16:04;;;;;;;16.42;12.52;;;25.60;99.90;;;27.27;56.06;97642.13;5223897;28;20201;-65
2022/08/26 07:18:40;;;;;;;14.05;12.27;;;25.50;99.90;;;27.01;56.95;97638.91;5223423;28;20204;-65
2022/08/26 07:21:16;;;;;;;13.88;12.45;;;25.10;99.90;;;27.05;57.16;97646.75;5219416;28;20212;-65
2022/08/26 07:23:52;;;;;;;16.05;14.48;;;25.10;99.90;;;27.12;57.00;97643.13;5221199;28;20704;-66
2022/08/26 07:26:33;;;;;;;14.48;12.98;;;25.30;99.90;;;27.79;54.89;97651.06;5225576;28;20211;-65
2022/08/26 07:29:06;;;;;;;14.60;13.20;;;25.60;99.90;;;28.20;53.50;97639.03;5226462;28;20229;-65
2022/08/26 07:31:40;;;;;;;14.27;12.75;;;25.90;99.90;;;28.66;51.92;97641.72;5221780;28;20224;-65
2022/08/26 07:34:15;;;;;;;14.00;12.55;;;26.30;99.70;;;28.80;52.23;97632.72;5221888;28;20220;-65
2022/08/26 07:36:50;;;;;;;13.77;12.40;;;26.70;99.70;;;28.95;51.66;97642.94;5221345;28;20648;-66
2022/08/26 07:39:26;;;;;;;13.10;11.70;;;26.90;98.80;;;28.91;50.92;97643.91;5223187;28;20493;-66
2022/08/26 07:42:00;;;;;;;15.32;13.07;;;27.00;98.10;;;28.88;51.87;97650.09;5221319;28;20220;-66
2022/08/26 07:44:33;;;;;;;13.82;12.30;;;27.20;97.80;;;28.86;52.91;97643.97;5222445;28;20248;-67
2022/08/26 07:47:07;;;;;;;14.13;12.10;;;27.20;98.30;;;28.92;52.08;97643.84;5222078;28;20914;-67
2022/08/26 07:49:57;;;;;;;13.40;11.77;;;27.40;97.90;;;28.96;52.59;97642.06;5223633;28;20231;-67
2022/08/26 07:52:31;;;;;;;14.05;12.02;;;27.50;97.80;;;29.17;51.47;97643.41;5225213;28;20267;-67
2022/08/26 07:55:08;;;;;;;16.83;12.55;;;27.70;96.70;;;29.35;51.22;97637.72;5222915;28;20752;-67
2022/08/26 07:57:42;;;;;;;13.23;11.80;;;27.90;96.50;;;29.77;49.98;97647.41;5222726;28;20259;-67
2022/08/26 08:00:17;;;;;;;14.90;12.23;;;28.30;95.80;;;29.98;48.97;97648.66;5221358;28;20552;-67
2022/08/26 08:02:50;;;;;;;14.35;11.85;;;28.60;95.10;;;30.14;49.07;97641.25;5220312;28;20220;-66
2022/08/26 08:05:31;;;;;;;12.60;11.25;;;28.70;94.80;;;30.13;48.58;97644.75;5218729;28;20668;-67
2022/08/26 08:08:08;;;;;;;12.05;10.98;;;28.90;94.30;;;30.28;48.11;97639.16;5218381;28;20689;-67
2022/08/26 08:11:01;;;;;;;13.80;12.38;;;29.10;93.80;;;30.05;49.17;97650.25;5221481;28;20731;-67
2022/08/26 08:13:34;;;;;;;13.45;11.18;;;28.90;94.10;;;30.23;49.20;97638.41;5220510;28;20244;-67
2022/08/26 08:16:07;;;;;;;15.80;11.43;;;29.10;94.10;;;30.46;48.58;97643.94;5222869;28;20642;-67
2022/08/26 08:18:44;;;;;;;15.50;11.38;;;29.30;93.60;;;30.63;47.72;97642.66;5223097;28;20703;-67
2022/08/26 08:21:18;;;;;;;13.38;10.85;;;29.40;93.30;;;30.92;47.06;97637.44;5220369;28;20575;-67
2022/08/26 08:23:57;;;;;;;15.02;11.50;;;29.70;92.60;;;31.11;46.53;97637.81;5220600;28;20795;-67
2022/08/26 08:26:33;;;;;;;12.30;10.98;;;30.10;92.00;;;31.47;45.79;97636.78;5221376;28;20204;-67
2022/08/26 08:29:08;;;;;;;13.93;11.95;;;30.30;91.50;;;31.59;45.20;97636.41;5220120;28;20616;-67
2022/08/26 08:31:41;;;;;;;15.90;12.38;;;30.40;91.20;;;31.39;45.31;97637.00;5220159;28;20279;-67
2022/08/26 08:34:30;;;;;;;13.68;12.13;;;29.90;91.80;;;31.12;46.46;97642.16;5224327;28;20224;-67
2022/08/26 08:37:05;;;;;;;12.85;11.43;;;29.50;92.40;;;30.88;47.05;97635.81;5221304;28;20565;-66
2022/08/26 08:39:42;;;;;;;12.65;11.23;;;29.20;93.00;;;30.76;47.47;97633.47;5221595;28;20295;-67
2022/08/26 08:42:41;;;;;;;13.98;11.38;;;29.10;93.20;;;30.78;47.48;97636.06;5221940;28;20193;-66
2022/08/26 08:45:21;;;;;;;13.95;11.80;;;29.40;92.80;;;30.70;47.46;97629.22;5220355;28;20239;-67
2022/08/26 08:47:57;;;;;;;12.02;10.90;;;29.50;92.40;;;30.47;48.55;97626.34;5221286;28;20263;-66
2022/08/26 08:50:33;;;;;;;15.30;11.80;;;29.10;93.30;;;30.85;46.85;97627.09;5220997;28;20295;-67
2022/08/26 08:53:15;;;;;;;12.73;10.95;;;29.60;92.00;;;31.01;46.57;97627.53;5219871;28;20231;-67
2022/08/26 08:55:58;;;;;;;12.38;10.00;;;29.90;91.70;;;31.34;46.16;97626.56;5221974;28;20205;-66
2022/08/26 08:58:50;;;;;;;11.75;10.50;;;30.30;91.50;;;31.63;45.96;97630.13;5221338;28;20200;-67
2022/08/26 09:01:45;;;;;;;13.95;10.77;;;30.80;91.10;;;31.82;45.08;97627.75;5219513;28;20294;-67
2022/08/26 09:04:40;;;;;;;12.65;11.32;;;31.00;90.20;;;31.23;46.62;97625.16;5219881;28;20310;-66
2022/08/26 09:07:18;;;;;;;13.85;11.25;;;30.20;91.50;;;30.86;47.78;97623.56;5215858;28;20199;-66
2022/08/26 09:09:56;;;;;;;13.60;10.02;;;29.70;92.30;;;30.79;45.74;97617.59;5220081;28;20656;-67
2022/08/26 09:12:34;;;;;;;13.07;9.82;;;29.80;90.90;;;30.97;45.62;97613.56;5219063;28;20660;-66
2022/08/26 09:15:32;;;;;;;10.43;9.43;;;30.00;90.60;;;31.06;46.46;97620.38;5220289;28;20295;-67
2022/08/26 09:18:21;;;;;;;10.43;8.63;;;30.10;91.00;;;31.17;44.11;97613.00;5220651;28;20247;-66
2022/08/26 09:21:02;;;;;;;10.30;9.18;;;30.40;88.40;;;31.01;44.36;97619.63;5219800;28;20232;-66
2022/08/26 09:23:40;;;;;;;10.90;9.80;;;30.00;88.90;;;31.07;45.04;97617.66;5221469;28;20255;-66
2022/08/26 09:26:19;;;;;;;13.13;9.65;;;30.00;89.90;;;30.63;44.63;97613.63;5220504;28;20283;-67
2022/08/26 09:28:58;;;;;;;11.98;9.20;;;29.70;88.70;;;30.57;44.84;97601.44;5220094;28;20197;-66
2022/08/26 09:31:36;;;;;;;12.63;8.93;;;29.50;89.20;;;30.86;43.91;97608.59;5220742;28;20273;-67
2022/08/26 09:34:15;;;;;;;12.20;8.27;;;29.80;88.60;;;30.97;43.65;97601.22;5219774;28;20239;-66
2022/08/26 09:36:53;;;;;;;11.50;8.98;;;30.10;87.30;;;30.99;43.85;97606.44;5220139;28;20215;-67
2022/08/26 09:39:35;;;;;;;13.75;9.68;;;30.10;87.30;;;31.16;44.46;97592.75;5217726;28;20644;-67
2022/08/26 09:42:12;;;;;;;11.48;9.35;;;30.20;89.00;;;31.10;44.22;97587.66;5219582;28;20578;-66
2022/08/26 09:44:55;;;;;;;12.10;8.90;;;30.20;88.30;;;31.16;45.14;97584.84;5221081;28;20220;-67
2022/08/26 09:47:33;;;;;;;11.70;8.77;;;30.40;89.20;;;31.42;44.51;97571.75;5215366;28;20197;-66
2022/08/26 09:50:19;;;;;;;12.45;9.02;;;30.70;87.20;;;31.61;42.67;97576.44;5219496;28;20224;-67
2022/08/26 09:53:09;;;;;;;14.55;9.00;;;30.90;86.00;;;31.87;41.57;97584.38;5217933;28;20819;-67
2022/08/26 09:55:48;;;;;;;15.43;9.13;;;31.10;84.10;;;31.94;41.63;97568.38;5222375;28;20696;-67
2022/08/26 09:58:34;;;;;;;9.65;8.40;;;31.30;83.90;;;32.06;40.89;97562.66;5218713;28;20208;-66
2022/08/26 10:01:16;;;;;;;11.52;9.20;;;31.30;83.30;;;32.16;42.16;97566.69;5218435;28;20292;-67
2022/08/26 10:03:53;;;;;;;13.07;9.07;;;31.50;84.10;;;32.30;40.35;97559.16;5219527;28;20232;-67
2022/08/26 10:06:27;;;;;;;11.18;7.68;;;31.70;81.30;;;32.31;38.72;97558.25;5220383;28;20324;-67
2022/08/26 10:09:02;;;;;;;11.88;7.40;;;31.70;79.20;;;32.36;38.34;97552.78;5213522;28;20205;-66
2022/08/26 10:11:47;;;;;;;11.93;7.57;;;31.70;78.40;;;32.05;39.08;97548.59;5219019;28;20212;-67
2022/08/26 10:14:26;;;;;;;10.80;7.80;;;31.30;78.90;;;31.57;40.02;97543.09;5219779;28;20274;-66
2022/08/26 10:17:05;;;;;;;15.63;8.77;;;30.60;81.10;;;30.86;42.19;97542.59;5218087;28;20243;-67
2022/08/26 10:19:48;;;;;;;12.82;8.88;;;29.80;84.00;;;30.69;42.64;97534.28;5219278;28;20661;-66
2022/08/26 10:22:37;;;;;;;14.55;8.70;;;29.50;84.60;;;30.67;43.08;97538.72;5217981;28;20205;-67
2022/08/26 10:25:17;;;;;;;13.10;8.05;;;29.40;85.80;;;30.62;42.76;97533.59;5219322;28;20228;-66
2022/08/26 10:28:00;;;;;;;13.43;8.00;;;29.60;84.50;;;30.28;43.01;97536.28;5218366;28;20197;-66
2022/08/26 10:30:38;;;;;;;13.43;8.43;;;29.30;85.20;;;30.00;43.10;97534.34;5220144;28;20282;-67
2022/08/26 10:33:15;;;;;;;15.23;8.43;;;29.00;84.80;;;29.98;43.32;97533.50;5218745;28;20229;-67
2022/08/26 10:35:55;;;;;;;12.30;7.47;;;28.90;85.10;;;29.84;43.07;97533.84;5223619;28;20380;-66
2022/08/26 10:38:34;;;;;;;13.15;7.78;;;28.90;84.80;;;30.18;42.16;97525.06;5222612;28;20748;-66
2022/08/26 10:41:13;;;;;;;12.65;7.53;;;29.30;82.90;;;30.23;42.43;97527.63;5219669;28;20898;-67
2022/08/26 10:43:55;;;;;;;12.23;8.43;;;29.40;83.60;;;30.14;42.81;97517.31;5223416;28;20240;-67
2022/08/26 10:46:38;;;;;;;12.73;7.82;;;29.30;83.30;;;30.24;42.74;97518.81;5222151;28;20236;-67
2022/08/26 10:49:16;;;;;;;13.93;7.97;;;29.40;83.80;;;30.51;42.42;97530.38;5220183;28;20224;-67
2022/08/26 10:52:11;;;;;;;14.30;7.95;;;29.80;82.90;;;30.71;42.10;97533.31;5219910;28;20341;-67
2022/08/26 10:55:30;;;;;;;10.70;8.15;;;30.10;82.40;;;31.08;40.09;97512.91;5222587;28;20231;-68
2022/08/26 10:58:43;;;;;;;11.20;7.55;;;30.50;79.20;;;31.37;39.42;97510.25;5222799;28;20242;-67
2022/08/26 11:01:48;;;;;;;15.65;9.00;;;30.70;78.90;;;31.59;38.49;97514.81;5214163;28;20207;-67